Time;durP1;ratioP1;P1;durP2;ratioP2;P2;SDS_P1;SDS_P2;PMS_P1;PMS_P2;Temp;Humidity;BMP_temperature;BMP_pressure;BME280_temperature;BME280_humidity;BME280_pressure;Samples;Min_cycle;Max_cycle;Signal;HPM_P1;HPM_P2
2023/09/02 00:01:38;;;;;;;0.10;0.10;;;;;;;20.64;61.86;101601.91;4960609;28;20065;-91
2023/09/02 00:04:04;;;;;;;0.10;0.10;;;;;;;20.72;62.06;101606.56;4992584;28;20022;-91
2023/09/02 00:06:29;;;;;;;0.10;0.10;;;;;;;20.69;61.73;101612.91;4960080;28;20488;-91
2023/09/02 00:08:55;;;;;;;0.17;0.17;;;;;;;20.58;62.39;101599.75;4975742;28;20034;-90
2023/09/02 00:11:20;;;;;;;0.20;0.20;;;;;;;20.65;62.00;101608.84;4976275;28;20499;-90
2023/09/02 00:13:46;;;;;;;0.20;0.20;;;;;;;20.60;61.88;101601.31;4976169;28;20039;-92
2023/09/02 00:16:13;;;;;;;0.20;0.20;;;;;;;20.59;62.00;101604.88;4975949;28;20037;-91
2023/09/02 00:18:39;;;;;;;0.15;0.15;;;;;;;20.54;62.96;101609.63;4976290;28;20058;-91
2023/09/02 00:21:04;;;;;;;0.10;0.10;;;;;;;20.49;62.83;101600.44;4976178;28;20019;-90
2023/09/02 00:23:31;;;;;;;0.20;0.20;;;;;;;20.44;62.79;101594.69;4975727;28;20499;-90
2023/09/02 00:25:57;;;;;;;0.20;0.20;;;;;;;20.48;62.79;101601.41;4991771;28;20483;-91
2023/09/02 00:28:22;;;;;;;0.10;0.10;;;;;;;20.48;62.08;101601.41;4975889;28;20026;-90
2023/09/02 00:30:48;;;;;;;0.10;0.10;;;;;;;20.41;62.47;101592.25;4975880;28;20034;-91
2023/09/02 00:33:13;;;;;;;0.10;0.10;;;;;;;20.38;62.49;101590.69;4975660;28;20500;-91
2023/09/02 00:35:38;;;;;;;0.10;0.10;;;;;;;20.33;63.07;101595.44;4959536;28;20049;-91
2023/09/02 00:38:04;;;;;;;0.20;0.20;;;;;;;20.25;63.19;101582.88;4975199;28;20026;-91
2023/09/02 00:40:29;;;;;;;0.10;0.10;;;;;;;20.26;63.67;101605.59;4991709;28;20027;-91
2023/09/02 00:42:55;;;;;;;0.15;0.15;;;;;;;20.21;63.33;101607.72;4959345;28;20022;-90
2023/09/02 00:45:22;;;;;;;0.20;0.20;;;;;;;20.09;63.90;101598.13;4959612;28;20416;-92
2023/09/02 00:47:53;;;;;;;0.20;0.20;;;;;;;20.15;63.95;101612.56;4991698;28;20023;-92
2023/09/02 00:50:19;;;;;;;0.10;0.10;;;;;;;20.20;63.52;101619.19;4959909;28;20030;-93
2023/09/02 00:52:46;;;;;;;0.10;0.10;;;;;;;20.26;62.83;101615.28;4962156;28;20089;-90
2023/09/02 00:55:11;;;;;;;0.10;0.10;;;;;;;20.24;63.21;101622.41;4975476;28;20060;-90
2023/09/02 00:57:37;;;;;;;0.10;0.10;;;;;;;20.14;63.53;101605.66;4975187;28;20030;-91
2023/09/02 01:00:05;;;;;;;0.10;0.10;;;;;;;20.12;63.03;101613.66;4975488;28;20047;-91
2023/09/02 01:02:31;;;;;;;0.10;0.10;;;;;;;20.12;62.96;101612.81;4992614;28;20054;-92
2023/09/02 01:04:57;;;;;;;0.20;0.20;;;;;;;20.05;63.62;101623.75;4991431;28;20030;-91
2023/09/02 01:07:23;;;;;;;0.10;0.10;;;;;;;19.97;63.90;101626.13;4975057;28;20030;-91
2023/09/02 01:09:49;;;;;;;0.10;0.10;;;;;;;20.03;63.61;101624.81;4975247;28;20030;-91
2023/09/02 01:12:14;;;;;;;0.20;0.20;;;;;;;20.09;63.60;101623.56;4959105;28;20026;-92
2023/09/02 01:14:40;;;;;;;0.10;0.10;;;;;;;20.06;63.39;101627.25;4959310;28;20045;-91
2023/09/02 01:17:05;;;;;;;0.10;0.10;;;;;;;20.04;63.82;101631.75;4975172;28;20460;-91
2023/09/02 01:19:31;;;;;;;0.10;0.10;;;;;;;20.00;63.78;101625.06;4974852;28;20055;-91
2023/09/02 01:22:17;;;;;;;0.10;0.10;;;;;;;19.89;63.78;101617.97;4958717;28;20030;-91
2023/09/02 01:24:51;;;;;;;0.10;0.10;;;;;;;19.94;63.91;101628.94;4991316;28;20042;-90
2023/09/02 01:27:35;;;;;;;0.10;0.10;;;;;;;19.88;63.91;101623.31;4991368;28;20026;-92
2023/09/02 01:30:06;;;;;;;0.20;0.20;;;;;;;19.84;63.63;101621.84;4975868;28;20046;-92
2023/09/02 01:32:33;;;;;;;0.20;0.20;;;;;;;19.75;63.89;101626.81;4991269;28;20142;-93
2023/09/02 01:35:06;;;;;;;0.20;0.20;;;;;;;19.56;63.43;101608.06;4974724;28;20068;-91
2023/09/02 01:37:43;;;;;;;0.20;0.20;;;;;;;19.57;63.47;101607.16;4991062;28;20030;-90
2023/09/02 01:40:10;;;;;;;0.10;0.10;;;;;;;19.83;63.41;101633.31;4975563;28;20477;-91
2023/09/02 01:42:35;;;;;;;0.10;0.10;;;;;;;19.85;62.83;101624.38;4975270;28;20104;-91
2023/09/02 01:45:01;;;;;;;0.20;0.20;;;;;;;19.83;62.96;101639.41;4975001;28;20030;-91
2023/09/02 01:47:26;;;;;;;0.10;0.10;;;;;;;19.71;63.17;101616.66;4991056;28;20476;-92
2023/09/02 01:49:52;;;;;;;0.10;0.10;;;;;;;19.74;63.33;101635.63;4990358;28;20023;-92
2023/09/02 01:52:17;;;;;;;0.20;0.20;;;;;;;19.74;63.41;101635.63;4974871;28;21485;-92
2023/09/02 01:54:43;;;;;;;0.10;0.10;;;;;;;19.88;63.17;101633.84;4974536;28;20027;-91
2023/09/02 01:57:08;;;;;;;0.10;0.10;;;;;;;19.73;63.24;101633.13;4974955;28;20037;-92
2023/09/02 01:59:34;;;;;;;0.20;0.20;;;;;;;19.49;63.49;101614.69;4974579;28;20030;-91
2023/09/02 02:02:00;;;;;;;0.10;0.10;;;;;;;19.59;64.33;101641.16;4958479;28;20500;-90
2023/09/02 02:04:36;;;;;;;0.10;0.10;;;;;;;19.51;64.45;101632.94;4961056;28;20030;-89
2023/09/02 02:07:06;;;;;;;0.20;0.20;;;;;;;19.49;64.10;101628.66;4963371;28;20481;-92
2023/09/02 02:09:40;;;;;;;0.10;0.10;;;;;;;19.53;63.80;101631.88;4978765;28;20029;-91
2023/09/02 02:12:06;;;;;;;0.10;0.10;;;;;;;19.64;63.67;101639.88;4978811;28;20034;-91
2023/09/02 02:14:32;;;;;;;0.10;0.10;;;;;;;19.60;63.57;101640.22;4978377;28;20490;-91
2023/09/02 02:16:58;;;;;;;0.10;0.10;;;;;;;19.44;64.13;101606.28;4978107;28;20034;-91
2023/09/02 02:19:23;;;;;;;0.20;0.20;;;;;;;19.62;64.01;101631.28;4993996;28;20054;-91
2023/09/02 02:21:49;;;;;;;0.10;0.10;;;;;;;19.61;63.76;101637.47;4961994;28;20030;-91
2023/09/02 02:24:14;;;;;;;0.10;0.10;;;;;;;19.66;63.54;101630.09;4977843;28;20034;-91
2023/09/02 02:26:40;;;;;;;0.20;0.20;;;;;;;19.63;63.69;101637.34;4978228;28;20037;-90
2023/09/02 02:29:05;;;;;;;0.10;0.10;;;;;;;19.45;64.04;101618.47;4961763;28;20030;-91
2023/09/02 02:31:33;;;;;;;0.10;0.10;;;;;;;19.62;63.60;101648.81;4994479;28;20037;-90
2023/09/02 02:33:58;;;;;;;0.10;0.10;;;;;;;19.62;63.61;101646.19;4994173;28;20088;-90
2023/09/02 02:36:24;;;;;;;0.10;0.10;;;;;;;19.62;63.78;101649.66;4978264;28;20034;-92
2023/09/02 02:38:49;;;;;;;0.10;0.10;;;;;;;19.49;63.47;101644.41;4994278;28;21033;-86
2023/09/02 02:41:15;;;;;;;0.10;0.10;;;;;;;19.46;63.51;101649.84;4994336;28;20023;-92
2023/09/02 02:43:40;;;;;;;0.10;0.10;;;;;;;19.40;64.03;101649.44;4961701;28;20590;-89
2023/09/02 02:46:05;;;;;;;0.20;0.20;;;;;;;19.29;64.52;101644.13;4977772;28;20026;-90
2023/09/02 02:48:31;;;;;;;0.10;0.10;;;;;;;19.23;64.94;101639.28;4993688;28;20030;-89
2023/09/02 02:50:57;;;;;;;0.10;0.10;;;;;;;19.15;65.37;101640.63;4977678;28;20065;-92
2023/09/02 02:53:23;;;;;;;0.10;0.10;;;;;;;19.09;65.51;101627.97;4977553;28;20030;-92
2023/09/02 02:55:48;;;;;;;0.10;0.10;;;;;;;19.03;65.14;101617.88;4977858;28;20481;-91
2023/09/02 02:58:15;;;;;;;0.10;0.10;;;;;;;19.11;64.78;101615.59;4993585;28;20481;-91
2023/09/02 03:00:42;;;;;;;0.10;0.10;;;;;;;19.10;65.00;101632.25;4993903;28;20033;-90
2023/09/02 03:03:08;;;;;;;0.10;0.10;;;;;;;19.06;65.63;101638.66;4977115;28;20032;-91
2023/09/02 03:05:37;;;;;;;0.20;0.20;;;;;;;19.01;65.38;101618.94;4977470;28;20022;-91
2023/09/02 03:08:07;;;;;;;0.20;0.20;;;;;;;19.03;65.10;101623.13;4993713;28;20023;-91
2023/09/02 03:10:35;;;;;;;0.10;0.10;;;;;;;19.18;65.03;101653.56;4977223;28;20041;-90
2023/09/02 03:13:04;;;;;;;0.20;0.20;;;;;;;19.12;64.85;101648.72;4977264;28;20113;-91
2023/09/02 03:15:30;;;;;;;0.10;0.10;;;;;;;19.05;64.77;101642.22;4992141;28;20113;-91
2023/09/02 03:17:55;;;;;;;0.10;0.10;;;;;;;18.88;66.21;101650.41;4977006;28;20058;-92
2023/09/02 03:20:21;;;;;;;0.15;0.15;;;;;;;18.88;66.35;101653.03;4994666;28;20026;-90
2023/09/02 03:22:46;;;;;;;0.10;0.10;;;;;;;18.79;66.56;101649.25;4993454;28;20502;-89
2023/09/02 03:25:12;;;;;;;0.10;0.10;;;;;;;18.91;65.39;101643.16;4977401;28;20116;-93
2023/09/02 03:27:38;;;;;;;0.13;0.13;;;;;;;18.92;65.73;101652.72;4960966;28;20034;-90
2023/09/02 03:30:05;;;;;;;0.20;0.20;;;;;;;18.89;65.64;101646.84;4960461;28;20122;-93
2023/09/02 03:32:31;;;;;;;0.20;0.20;;;;;;;18.92;65.53;101649.25;4960851;28;20118;-91
2023/09/02 03:34:56;;;;;;;0.20;0.20;;;;;;;18.88;66.09;101655.66;4960924;28;20031;-90
2023/09/02 03:37:22;;;;;;;0.10;0.10;;;;;;;18.97;65.40;101668.13;4993116;28;20079;-91
2023/09/02 03:39:47;;;;;;;0.20;0.20;;;;;;;18.89;65.68;101655.56;4976961;28;20119;-90
2023/09/02 03:42:13;;;;;;;0.20;0.20;;;;;;;18.83;65.88;101652.50;4976832;28;20037;-90
2023/09/02 03:44:38;;;;;;;0.10;0.10;;;;;;;18.86;66.25;101668.00;4976450;28;20038;-91
2023/09/02 03:47:03;;;;;;;0.10;0.10;;;;;;;18.90;65.72;101664.25;4992834;28;20408;-92
2023/09/02 03:49:29;;;;;;;0.20;0.20;;;;;;;18.80;66.11;101665.81;4976680;28;20034;-90
2023/09/02 03:51:54;;;;;;;0.20;0.20;;;;;;;18.84;66.25;101660.25;4992896;28;20026;-91
2023/09/02 03:54:20;;;;;;;0.20;0.20;;;;;;;18.77;66.10;101664.22;4976467;28;20041;-92
2023/09/02 03:56:45;;;;;;;0.20;0.20;;;;;;;18.62;66.52;101658.19;4976384;28;20035;-92
2023/09/02 03:59:11;;;;;;;0.17;0.17;;;;;;;18.78;66.02;101660.69;4976047;28;20030;-91
2023/09/02 04:01:36;;;;;;;0.10;0.10;;;;;;;18.85;65.60;101653.22;4960177;28;20492;-90
2023/09/02 04:04:02;;;;;;;0.20;0.20;;;;;;;18.74;65.75;101659.19;4960291;28;20030;-90
2023/09/02 04:06:28;;;;;;;0.10;0.10;;;;;;;18.63;67.21;101667.72;4976283;28;20037;-90
2023/09/02 04:08:53;;;;;;;0.20;0.20;;;;;;;18.58;67.65;101669.84;4993601;28;20031;-91
2023/09/02 04:11:18;;;;;;;0.10;0.10;;;;;;;18.50;67.39;101672.13;4976177;28;20022;-90
2023/09/02 04:13:44;;;;;;;0.10;0.10;;;;;;;18.44;68.04;101676.91;4992363;28;20026;-91
2023/09/02 04:16:10;;;;;;;0.10;0.10;;;;;;;18.47;67.45;101693.25;4959881;28;20038;-92
2023/09/02 04:18:36;;;;;;;0.20;0.20;;;;;;;18.63;66.34;101688.69;4975990;28;20137;-90
2023/09/02 04:21:02;;;;;;;0.20;0.20;;;;;;;18.60;66.58;101694.16;4976318;28;20065;-92
2023/09/02 04:23:28;;;;;;;0.10;0.10;;;;;;;18.46;67.16;101693.34;4976058;28;20038;-92
2023/09/02 04:25:53;;;;;;;0.10;0.10;;;;;;;18.53;67.13;101687.63;4975759;28;20031;-91
2023/09/02 04:28:19;;;;;;;0.10;0.10;;;;;;;18.51;66.96;101691.28;4991822;28;20031;-90
2023/09/02 04:30:45;;;;;;;0.10;0.10;;;;;;;18.45;67.45;101691.69;4975735;28;20583;-91
2023/09/02 04:33:11;;;;;;;0.20;0.20;;;;;;;18.56;66.27;101679.56;4959902;28;20034;-89
2023/09/02 04:35:41;;;;;;;0.10;0.10;;;;;;;18.54;66.39;101685.84;4976014;28;20026;-92
2023/09/02 04:38:06;;;;;;;0.10;0.10;;;;;;;18.48;66.82;101694.09;4976222;28;20037;-90
2023/09/02 04:40:36;;;;;;;0.10;0.10;;;;;;;18.44;66.77;101696.09;4975896;28;20034;-91
2023/09/02 04:43:03;;;;;;;0.20;0.20;;;;;;;18.60;66.26;101695.94;4975660;28;20153;-91
2023/09/02 04:45:31;;;;;;;0.20;0.20;;;;;;;18.47;65.67;101669.66;4975757;28;20085;-92
2023/09/02 04:47:57;;;;;;;0.20;0.20;;;;;;;18.71;65.43;101717.06;4991883;28;20061;-93
2023/09/02 04:50:22;;;;;;;0.10;0.10;;;;;;;18.74;65.42;101711.63;5008073;28;20035;-90
2023/09/02 04:52:49;;;;;;;0.10;0.10;;;;;;;18.66;65.70;101718.28;4991851;28;20035;-91
2023/09/02 04:55:15;;;;;;;0.20;0.20;;;;;;;18.69;65.45;101715.50;4975801;28;20034;-90
2023/09/02 04:57:40;;;;;;;0.20;0.20;;;;;;;18.73;65.39;101709.09;4975079;28;20038;-91
2023/09/02 05:00:07;;;;;;;0.10;0.10;;;;;;;18.65;65.41;101696.50;4975312;28;20420;-92
2023/09/02 05:02:33;;;;;;;0.20;0.20;;;;;;;18.61;65.99;101703.69;4991458;28;20072;-91
2023/09/02 05:04:58;;;;;;;0.20;0.20;;;;;;;18.65;65.74;101700.88;4958893;28;20034;-91
2023/09/02 05:07:23;;;;;;;0.10;0.10;;;;;;;18.77;65.28;101702.69;4959515;28;20030;-91
2023/09/02 05:09:53;;;;;;;0.10;0.10;;;;;;;18.79;65.27;101713.94;4959218;28;20480;-92
2023/09/02 05:12:20;;;;;;;0.20;0.20;;;;;;;18.77;65.21;101710.56;4974772;28;20023;-92
2023/09/02 05:14:45;;;;;;;0.10;0.10;;;;;;;18.83;65.48;101707.53;4975281;28;20088;-91
2023/09/02 05:17:11;;;;;;;0.20;0.20;;;;;;;18.98;64.70;101711.78;4959030;28;20026;-91
2023/09/02 05:19:36;;;;;;;0.20;0.20;;;;;;;19.01;64.20;101710.72;4975038;28;20062;-91
2023/09/02 05:22:03;;;;;;;0.20;0.20;;;;;;;19.17;64.47;101711.34;4991293;28;20034;-92
2023/09/02 05:24:28;;;;;;;0.20;0.20;;;;;;;19.31;64.03;101711.28;4975719;28;20067;-91
2023/09/02 05:26:54;;;;;;;0.20;0.20;;;;;;;19.18;64.12;101694.69;4974679;28;20030;-91
2023/09/02 05:29:19;;;;;;;0.20;0.20;;;;;;;19.24;64.08;101706.53;4991267;28;20566;-91
2023/09/02 05:31:45;;;;;;;0.20;0.20;;;;;;;19.30;63.93;101703.50;4991265;28;20033;-91
2023/09/02 05:34:11;;;;;;;0.20;0.20;;;;;;;19.25;63.60;101705.59;4975092;28;20065;-91
2023/09/02 05:36:36;;;;;;;0.20;0.20;;;;;;;19.41;62.62;101708.84;4959135;28;20139;-90
2023/09/02 05:39:02;;;;;;;0.20;0.20;;;;;;;19.49;63.18;101715.25;4974155;28;20037;-92
2023/09/02 05:41:28;;;;;;;0.10;0.10;;;;;;;19.60;62.62;101717.16;4958553;28;20038;-91
2023/09/02 05:43:54;;;;;;;0.20;0.20;;;;;;;19.62;62.80;101720.50;4975108;28;20037;-92
2023/09/02 05:46:19;;;;;;;0.20;0.20;;;;;;;19.72;62.59;101718.09;4958641;28;20022;-91
2023/09/02 05:48:45;;;;;;;0.10;0.10;;;;;;;19.86;62.39;101730.22;4991146;28;20038;-91
2023/09/02 05:51:10;;;;;;;0.10;0.10;;;;;;;19.93;61.99;101734.13;5007296;28;20030;-92
2023/09/02 05:53:35;;;;;;;0.20;0.20;;;;;;;19.85;62.30;101705.75;4974902;28;20030;-92
2023/09/02 05:56:01;;;;;;;0.20;0.20;;;;;;;20.03;62.46;101727.25;4991903;28;20033;-91
2023/09/02 05:58:27;;;;;;;0.20;0.20;;;;;;;20.02;62.00;101728.22;4974840;28;20504;-92
2023/09/02 06:00:52;;;;;;;0.20;0.20;;;;;;;19.99;62.60;101723.19;4958728;28;20026;-92
2023/09/02 06:03:18;;;;;;;0.10;0.10;;;;;;;20.13;61.95;101730.91;4958525;28;20031;-91
2023/09/02 06:05:43;;;;;;;0.10;0.10;;;;;;;20.21;61.71;101731.19;4974792;28;20038;-91
2023/09/02 06:08:09;;;;;;;0.10;0.10;;;;;;;20.29;61.27;101733.28;4974473;28;20029;-92
2023/09/02 06:10:35;;;;;;;0.10;0.10;;;;;;;20.42;60.89;101741.94;4974392;28;20030;-90
2023/09/02 06:13:00;;;;;;;0.20;0.20;;;;;;;20.38;61.55;101731.78;4974746;28;20026;-91
2023/09/02 06:15:26;;;;;;;0.20;0.20;;;;;;;20.48;61.79;101740.72;4990750;28;20030;-93
2023/09/02 06:17:51;;;;;;;0.13;0.13;;;;;;;20.52;62.08;101744.78;4990816;28;22140;-92
2023/09/02 06:20:20;;;;;;;0.10;0.10;;;;;;;20.56;61.63;101733.94;4974823;28;20054;-93
2023/09/02 06:22:45;;;;;;;0.10;0.10;;;;;;;20.67;61.37;101740.19;4959079;28;20034;-93
2023/09/02 06:25:11;;;;;;;0.20;0.20;;;;;;;20.84;60.49;101740.63;4990057;28;20033;-93
2023/09/02 06:27:37;;;;;;;0.20;0.20;;;;;;;20.85;60.67;101739.69;4958730;28;20061;-93
2023/09/02 06:30:03;;;;;;;0.20;0.20;;;;;;;21.00;60.12;101736.84;4990739;28;20031;-93
2023/09/02 06:32:28;;;;;;;0.20;0.20;;;;;;;21.17;59.37;101745.13;4990748;28;20033;-92
2023/09/02 06:34:54;;;;;;;0.10;0.10;;;;;;;21.24;59.29;101745.53;4974490;28;20030;-93
2023/09/02 06:37:20;;;;;;;0.10;0.10;;;;;;;21.29;59.64;101748.66;4990795;28;20102;-92
2023/09/02 06:39:45;;;;;;;0.20;0.20;;;;;;;21.36;58.98;101744.59;4974111;28;20041;-93
2023/09/02 06:42:10;;;;;;;0.20;0.20;;;;;;;21.42;59.34;101736.22;4958196;28;20504;-94
2023/09/02 06:44:36;;;;;;;0.17;0.17;;;;;;;21.55;59.18;101743.19;4958343;28;20026;-93
2023/09/02 06:47:02;;;;;;;0.10;0.10;;;;;;;21.47;58.88;101714.81;4990602;28;20037;-92
2023/09/02 06:49:30;;;;;;;0.20;0.20;;;;;;;21.71;58.54;101749.75;4991711;28;20026;-91
2023/09/02 06:51:55;;;;;;;0.20;0.20;;;;;;;21.77;58.52;101743.19;4978337;28;20030;-94
2023/09/02 06:54:21;;;;;;;0.20;0.20;;;;;;;21.84;58.22;101738.28;4977487;28;20046;-93
2023/09/02 06:56:46;;;;;;;0.20;0.20;;;;;;;21.97;58.31;101753.00;4977618;28;20030;-95
2023/09/02 06:59:12;;;;;;;0.20;0.20;;;;;;;22.02;57.98;101747.34;4977638;28;20039;-92
2023/09/02 07:01:38;;;;;;;0.20;0.20;;;;;;;22.17;57.75;101748.78;4978070;28;20481;-91
2023/09/02 07:04:03;;;;;;;0.20;0.20;;;;;;;22.32;57.49;101747.56;4993927;28;20110;-94
2023/09/02 07:06:29;;;;;;;0.20;0.20;;;;;;;22.43;57.30;101757.25;4977538;28;20085;-93
2023/09/02 07:08:54;;;;;;;0.20;0.20;;;;;;;22.54;55.82;101754.56;4993535;28;20041;-91
2023/09/02 07:11:19;;;;;;;0.20;0.20;;;;;;;22.67;55.69;101753.56;4993229;28;20038;-92
2023/09/02 07:13:48;;;;;;;0.20;0.20;;;;;;;22.74;55.58;101755.56;4961337;28;20033;-93
2023/09/02 07:16:15;;;;;;;0.20;0.20;;;;;;;22.80;54.97;101733.09;4994220;28;20034;-93
2023/09/02 07:18:40;;;;;;;0.20;0.20;;;;;;;23.02;54.47;101748.88;4977430;28;20051;-94
2023/09/02 07:21:06;;;;;;;0.20;0.20;;;;;;;23.10;54.35;101746.41;4961265;28;20026;-92
2023/09/02 07:23:32;;;;;;;0.20;0.20;;;;;;;23.23;52.89;101745.41;4977401;28;20065;-93
2023/09/02 07:26:01;;;;;;;0.20;0.20;;;;;;;23.40;53.41;101752.69;4961206;28;20031;-92
2023/09/02 07:28:27;;;;;;;0.20;0.20;;;;;;;23.48;53.31;101750.25;4977555;28;20217;-93
2023/09/02 07:30:55;;;;;;;0.20;0.20;;;;;;;23.58;53.09;101750.28;4977338;28;20784;-93
2023/09/02 07:33:20;;;;;;;0.20;0.20;;;;;;;23.69;52.01;101753.69;4977052;28;20033;-93
2023/09/02 07:35:46;;;;;;;0.20;0.20;;;;;;;23.82;51.96;101758.78;4977414;28;20035;-92
2023/09/02 07:38:11;;;;;;;0.20;0.20;;;;;;;23.99;51.65;101759.91;4992942;28;20081;-93
2023/09/02 07:40:37;;;;;;;0.20;0.20;;;;;;;23.99;51.08;101759.91;4961722;28;20045;-93
2023/09/02 07:43:02;;;;;;;0.20;0.20;;;;;;;24.04;50.89;101755.09;4976759;28;20698;-92
2023/09/02 07:45:28;;;;;;;0.20;0.20;;;;;;;24.23;50.78;101755.13;4976880;28;20088;-93
2023/09/02 07:47:54;;;;;;;0.20;0.20;;;;;;;24.35;49.90;101757.69;4960783;28;20034;-92
2023/09/02 07:50:19;;;;;;;0.20;0.20;;;;;;;24.37;48.66;101761.00;4960603;28;20022;-93
2023/09/02 07:52:45;;;;;;;0.20;0.20;;;;;;;24.43;49.29;101752.53;4960244;28;20037;-93
2023/09/02 07:55:10;;;;;;;0.20;0.20;;;;;;;24.67;48.83;101754.78;4976661;28;20045;-94
2023/09/02 07:57:35;;;;;;;0.20;0.20;;;;;;;24.60;47.77;101728.06;4976668;28;20045;-93
2023/09/02 08:00:01;;;;;;;0.20;0.20;;;;;;;24.90;47.85;101748.22;4976555;28;20019;-94
2023/09/02 08:02:26;;;;;;;0.20;0.20;;;;;;;25.03;47.30;101756.72;4976127;28;20022;-92
2023/09/02 08:04:52;;;;;;;0.20;0.20;;;;;;;25.13;45.95;101752.25;4976518;28;20412;-92
2023/09/02 08:07:17;;;;;;;0.20;0.20;;;;;;;25.22;45.88;101747.91;4961311;28;20490;-92
2023/09/02 08:09:43;;;;;;;0.20;0.20;;;;;;;25.32;46.29;101746.06;4972892;28;20030;-93
2023/09/02 08:12:08;;;;;;;0.20;0.20;;;;;;;25.37;45.98;101749.16;4957360;28;20122;-91
2023/09/02 08:14:35;;;;;;;0.20;0.20;;;;;;;25.50;46.68;101753.28;4957300;28;20050;-93
2023/09/02 08:17:01;;;;;;;0.20;0.20;;;;;;;25.64;45.59;101753.63;4957506;28;20023;-94
2023/09/02 08:19:31;;;;;;;0.20;0.20;;;;;;;25.85;44.18;101748.13;4972866;28;20050;-93
2023/09/02 08:21:56;;;;;;;0.20;0.20;;;;;;;25.87;44.00;101748.84;4972553;28;20516;-92
2023/09/02 08:24:22;;;;;;;0.20;0.20;;;;;;;25.81;44.26;101725.56;4956822;28;20023;-93
2023/09/02 08:26:47;;;;;;;0.20;0.20;;;;;;;25.97;43.54;101746.97;4972687;28;20437;-92
2023/09/02 08:29:13;;;;;;;0.20;0.20;;;;;;;26.00;43.48;101751.97;4940752;28;20026;-92
2023/09/02 08:31:38;;;;;;;0.20;0.20;;;;;;;26.15;43.06;101752.28;4956396;28;20031;-94
2023/09/02 08:34:04;;;;;;;0.20;0.20;;;;;;;26.23;42.75;101747.06;4956912;28;20038;-93
2023/09/02 08:36:29;;;;;;;0.20;0.20;;;;;;;26.33;42.43;101747.00;4972945;28;20042;-94
2023/09/02 08:38:55;;;;;;;0.20;0.20;;;;;;;26.34;42.44;101747.81;4956682;28;20035;-94
2023/09/02 08:41:25;;;;;;;0.20;0.20;;;;;;;26.57;43.18;101741.97;4956452;28;20034;-93
2023/09/02 08:43:52;;;;;;;0.20;0.20;;;;;;;26.70;41.32;101735.44;4956529;28;20035;-92
2023/09/02 08:46:17;;;;;;;0.20;0.20;;;;;;;26.85;41.44;101747.19;4956661;28;20497;-94
2023/09/02 08:48:43;;;;;;;0.20;0.20;;;;;;;27.04;41.21;101747.03;4957639;28;20034;-94
2023/09/02 08:51:09;;;;;;;0.20;0.20;;;;;;;27.09;40.86;101739.41;4956452;28;20481;-93
2023/09/02 08:53:35;;;;;;;0.20;0.20;;;;;;;27.29;41.49;101739.19;4956368;28;20037;-93
2023/09/02 08:56:00;;;;;;;0.20;0.20;;;;;;;27.35;40.63;101733.25;4940209;28;20038;-94
2023/09/02 08:58:26;;;;;;;0.20;0.20;;;;;;;27.52;40.75;101736.81;4955982;28;20038;-94
2023/09/02 09:00:51;;;;;;;0.20;0.20;;;;;;;27.56;39.46;101735.53;4956326;28;20081;-93
2023/09/02 09:03:17;;;;;;;0.20;0.20;;;;;;;27.62;39.07;101738.34;4956265;28;20035;-94
2023/09/02 09:05:42;;;;;;;0.20;0.20;;;;;;;27.60;39.23;101727.06;4955556;28;20504;-92
2023/09/02 09:08:08;;;;;;;0.20;0.20;;;;;;;27.66;39.27;101733.59;4956748;28;20038;-95
2023/09/02 09:10:35;;;;;;;0.20;0.20;;;;;;;27.74;38.85;101738.13;4956607;28;20554;-92
2023/09/02 09:13:02;;;;;;;0.20;0.20;;;;;;;27.93;38.65;101737.88;4955950;28;20030;-93
2023/09/02 09:15:28;;;;;;;0.20;0.20;;;;;;;28.04;37.94;101737.56;4956497;28;20031;-93
2023/09/02 09:17:53;;;;;;;0.20;0.20;;;;;;;28.04;37.81;101729.59;4957369;28;20047;-93
2023/09/02 09:20:18;;;;;;;0.20;0.20;;;;;;;28.16;37.85;101736.25;4956190;28;20030;-92
2023/09/02 09:22:44;;;;;;;0.20;0.20;;;;;;;28.35;37.86;101731.66;4971754;28;20425;-91
2023/09/02 09:25:09;;;;;;;0.20;0.20;;;;;;;28.48;37.91;101727.50;4975588;28;20031;-93
2023/09/02 09:27:35;;;;;;;0.20;0.20;;;;;;;28.58;37.77;101720.19;4955515;28;20035;-93
2023/09/02 09:30:00;;;;;;;0.20;0.20;;;;;;;28.69;37.32;101715.53;4971695;28;20030;-92
2023/09/02 09:32:26;;;;;;;0.20;0.20;;;;;;;28.92;36.08;101724.53;4972643;28;20117;-93
2023/09/02 09:34:51;;;;;;;0.20;0.20;;;;;;;29.09;36.16;101715.50;4971860;28;20111;-94
2023/09/02 09:37:17;;;;;;;0.20;0.20;;;;;;;29.27;35.95;101725.13;4958842;28;20033;-93
2023/09/02 09:39:47;;;;;;;0.20;0.20;;;;;;;29.37;35.97;101718.59;4956440;28;20090;-93
2023/09/02 09:42:13;;;;;;;0.20;0.20;;;;;;;29.33;36.30;101700.47;4956071;28;20027;-92
2023/09/02 09:44:55;;;;;;;0.20;0.20;;;;;;;29.46;36.44;101690.06;4955594;28;20138;-93
2023/09/02 09:47:21;;;;;;;;;;;;;;;29.71;35.86;101709.50;4956828;28;20042;-93
2023/09/02 09:49:49;;;;;;;0.20;0.20;;;;;;;29.59;36.08;101703.69;4973563;28;19914;-94
2023/09/02 09:52:15;;;;;;;0.20;0.20;;;;;;;29.79;35.68;101708.59;4972017;28;20031;-93
2023/09/02 09:54:45;;;;;;;0.20;0.20;;;;;;;29.99;34.89;101708.00;4956372;28;20035;-93
2023/09/02 09:57:14;;;;;;;0.20;0.20;;;;;;;30.10;34.94;101703.31;4972850;28;20043;-93
2023/09/02 09:59:40;;;;;;;0.20;0.20;;;;;;;30.12;33.94;101696.78;4956799;28;20034;-92
2023/09/02 10:02:05;;;;;;;0.20;0.20;;;;;;;30.28;34.10;101695.81;4956366;28;20058;-94
2023/09/02 10:04:32;;;;;;;0.20;0.20;;;;;;;30.54;34.49;101696.28;4956179;28;20031;-92
2023/09/02 10:06:59;;;;;;;0.20;0.20;;;;;;;30.73;33.32;101702.97;4972870;28;20061;-94
2023/09/02 10:09:24;;;;;;;0.20;0.20;;;;;;;30.78;33.93;101697.09;4956117;28;20118;-93
2023/09/02 10:11:50;;;;;;;0.20;0.20;;;;;;;31.09;33.46;101695.09;4973321;28;20027;-93
2023/09/02 10:14:16;;;;;;;0.20;0.20;;;;;;;31.20;33.13;101691.16;4956619;28;20039;-93
2023/09/02 10:16:44;;;;;;;0.20;0.20;;;;;;;31.42;32.59;101689.41;4940043;28;20146;-93
2023/09/02 10:19:10;;;;;;;0.20;0.20;;;;;;;31.60;32.41;101689.00;4972233;28;20050;-92
2023/09/02 10:21:36;;;;;;;0.20;0.20;;;;;;;31.59;32.04;101684.69;4940187;28;20031;-92
2023/09/02 10:24:04;;;;;;;0.20;0.20;;;;;;;31.46;32.21;101660.44;4957142;28;20035;-93
2023/09/02 10:26:53;;;;;;;0.20;0.20;;;;;;;31.75;32.19;101681.78;4976848;28;20038;-92
2023/09/02 10:29:21;;;;;;;0.30;0.30;;;;;;;31.66;32.39;101678.41;4971888;28;20046;-93
2023/09/02 10:31:48;;;;;;;0.20;0.20;;;;;;;31.60;33.04;101668.44;4975948;28;20031;-93
2023/09/02 10:34:15;;;;;;;0.20;0.20;;;;;;;31.73;32.06;101674.94;4945082;28;20034;-94
2023/09/02 10:36:48;;;;;;;0.20;0.20;;;;;;;31.81;31.96;101674.88;4975373;28;20031;-92
2023/09/02 10:39:22;;;;;;;0.22;0.22;;;;;;;31.86;32.03;101664.44;4959680;28;20034;-93
2023/09/02 10:41:47;;;;;;;0.30;0.30;;;;;;;31.80;31.02;101666.00;4959963;28;20077;-93
2023/09/02 10:44:13;;;;;;;0.20;0.20;;;;;;;31.73;31.33;101656.22;4975334;28;20110;-93
2023/09/02 10:46:39;;;;;;;0.30;0.30;;;;;;;31.87;31.10;101682.16;4959642;28;20023;-93
2023/09/02 10:49:04;;;;;;;0.20;0.20;;;;;;;31.90;31.23;101655.00;4959120;28;20039;-93
2023/09/02 10:51:29;;;;;;;0.22;0.22;;;;;;;32.15;31.46;101667.00;4960357;28;20027;-92
2023/09/02 10:53:55;;;;;;;0.20;0.20;;;;;;;32.34;31.15;101675.41;4975837;28;20030;-93
2023/09/02 10:56:27;;;;;;;0.20;0.20;;;;;;;32.52;31.28;101662.38;4959258;28;20027;-93
2023/09/02 10:58:53;;;;;;;0.20;0.20;;;;;;;32.67;30.56;101673.00;4959912;28;20019;-93
2023/09/02 11:01:18;;;;;;;0.30;0.30;;;;;;;32.75;30.21;101671.00;4975966;28;20037;-93
2023/09/02 11:03:46;;;;;;;0.30;0.30;;;;;;;32.89;28.92;101674.63;4958638;28;20372;-94
2023/09/02 11:06:14;;;;;;;0.20;0.20;;;;;;;32.74;28.58;101676.53;4958051;28;20034;-92
2023/09/02 11:08:50;;;;;;;0.20;0.20;;;;;;;32.66;28.25;101672.19;4959169;28;20107;-94
2023/09/02 11:11:18;;;;;;;0.20;0.20;;;;;;;32.71;28.68;101671.56;4942723;28;20113;-92
2023/09/02 11:14:16;;;;;;;0.20;0.20;;;;;;;32.83;28.88;101662.00;4943669;28;20097;-92
2023/09/02 11:16:42;;;;;;;0.20;0.20;;;;;;;32.85;28.18;101662.66;4959356;28;20045;-93
2023/09/02 11:19:08;;;;;;;0.20;0.20;;;;;;;32.91;28.55;101664.53;4959899;28;20054;-94
2023/09/02 11:21:41;;;;;;;0.20;0.20;;;;;;;33.06;28.00;101651.00;4959726;28;20023;-92